Time;durP1;ratioP1;P1;durP2;ratioP2;P2;SDS_P1;SDS_P2;PMS_P1;PMS_P2;Temp;Humidity;BMP_temperature;BMP_pressure;BME280_temperature;BME280_humidity;BME280_pressure;Samples;Min_cycle;Max_cycle;Signal;HPM_P1;HPM_P2
2023/08/31 00:03:28;;;;;;;31.38;20.70;;;;;;;11.27;93.42;99580.53;10209113;28;20047;-77
2023/08/31 00:08:32;;;;;;;34.20;20.48;;;;;;;11.27;93.00;99569.78;10208694;28;20118;-76
2023/08/31 00:13:35;;;;;;;32.40;20.58;;;;;;;11.33;92.09;99572.88;10220970;28;20089;-76
2023/08/31 00:18:39;;;;;;;35.67;19.70;;;;;;;11.35;91.55;99568.19;10214304;28;20062;-76
2023/08/31 00:23:43;;;;;;;29.35;18.40;;;;;;;11.37;90.80;99569.72;10222145;28;20434;-75
2023/08/31 00:28:45;;;;;;;27.45;17.25;;;;;;;11.19;91.72;99572.38;10211535;28;20253;-75
2023/08/31 00:33:50;;;;;;;31.00;18.30;;;;;;;11.15;91.67;99573.66;10212868;28;20059;-76
2023/08/31 00:38:53;;;;;;;28.55;17.25;;;;;;;10.87;93.39;99588.84;10209372;28;20529;-76
2023/08/31 00:43:56;;;;;;;29.02;17.17;;;;;;;10.99;92.16;99587.69;10220408;28;20054;-77
2023/08/31 00:49:01;;;;;;;27.17;16.60;;;;;;;11.10;91.14;99592.03;10207910;28;20470;-76
2023/08/31 00:54:05;;;;;;;28.63;17.00;;;;;;;11.08;91.71;99587.78;10212354;28;20051;-75
2023/08/31 00:59:08;;;;;;;25.95;15.35;;;;;;;11.00;91.93;99596.59;10207270;28;20059;-76
2023/08/31 01:04:23;;;;;;;28.95;15.50;;;;;;;10.90;92.04;99582.34;10210719;28;20059;-76
2023/08/31 01:09:36;;;;;;;31.67;15.43;;;;;;;10.98;92.01;99590.53;10210135;28;20494;-77
2023/08/31 01:14:45;;;;;;;27.02;14.18;;;;;;;11.01;92.22;99588.38;10206515;28;20063;-75
2023/08/31 01:19:53;;;;;;;21.67;13.75;;;;;;;10.91;92.44;99597.47;10217938;28;20051;-76
2023/08/31 01:25:01;;;;;;;22.67;13.35;;;;;;;10.98;91.79;99590.53;10210648;28;20169;-78
2023/08/31 01:30:05;;;;;;;19.15;13.18;;;;;;;11.10;90.72;99593.88;10214006;28;21282;-78
2023/08/31 01:35:08;;;;;;;23.00;13.23;;;;;;;11.21;89.91;99597.25;10210737;28;20049;-77
2023/08/31 01:40:17;;;;;;;24.77;13.25;;;;;;;11.26;89.34;99597.66;10211416;28;21234;-79
2023/08/31 01:45:23;;;;;;;23.23;13.43;;;;;;;11.19;89.43;99598.38;10206391;28;20050;-79
2023/08/31 01:50:26;;;;;;;20.27;13.20;;;;;;;11.14;89.59;99595.31;10213905;28;20051;-79
2023/08/31 01:55:30;;;;;;;21.85;11.25;;;;;;;10.96;89.31;99593.34;10210877;28;20137;-78
2023/08/31 02:00:38;;;;;;;17.60;11.35;;;;;;;11.05;88.78;99588.94;10212899;28;20137;-79
2023/08/31 02:05:41;;;;;;;18.83;10.65;;;;;;;11.13;88.54;99593.59;10217584;28;20051;-79
2023/08/31 02:10:46;;;;;;;22.98;12.45;;;;;;;11.03;89.57;99597.16;10208858;28;20043;-78
2023/08/31 02:15:56;;;;;;;24.60;12.05;;;;;;;11.04;89.91;99600.69;10220789;28;20134;-79
2023/08/31 02:20:59;;;;;;;27.70;11.25;;;;;;;10.97;90.11;99600.44;10209542;28;20051;-79
2023/08/31 02:26:03;;;;;;;22.52;12.20;;;;;;;11.03;90.25;99589.09;10212917;28;20044;-80
2023/08/31 02:31:06;;;;;;;25.42;13.68;;;;;;;10.98;90.38;99590.53;10214181;28;20051;-78
2023/08/31 02:36:09;;;;;;;29.70;14.52;;;;;;;11.06;90.20;99590.66;10213725;28;20300;-79
2023/08/31 02:41:13;;;;;;;28.15;16.45;;;;;;;11.00;90.39;99585.88;10237930;28;20529;-78
2023/08/31 02:46:16;;;;;;;28.90;16.50;;;;;;;10.88;90.52;99581.63;10229744;28;20134;-80
2023/08/31 02:51:19;;;;;;;29.30;16.70;;;;;;;10.97;90.58;99583.44;10220247;28;20051;-79
2023/08/31 02:56:23;;;;;;;39.72;18.92;;;;;;;11.04;89.79;99592.63;10221333;28;20055;-79
2023/08/31 03:01:27;;;;;;;33.03;19.00;;;;;;;11.04;90.05;99596.16;10220786;28;20051;-79
2023/08/31 03:06:32;;;;;;;36.05;17.65;;;;;;;11.09;89.71;99586.81;10214908;28;20134;-79
2023/08/31 03:11:36;;;;;;;32.10;17.90;;;;;;;10.51;92.73;99602.06;10216936;28;20063;-79
2023/08/31 03:16:40;;;;;;;32.10;19.33;;;;;;;10.93;90.11;99604.38;10216825;28;20185;-80
2023/08/31 03:21:43;;;;;;;36.28;20.85;;;;;;;11.01;89.91;99599.13;10220078;28;20047;-78
2023/08/31 03:26:47;;;;;;;33.45;19.38;;;;;;;10.87;90.63;99612.19;10219204;28;20514;-78
2023/08/31 03:31:50;;;;;;;33.58;19.92;;;;;;;10.92;89.65;99620.66;10213647;28;20058;-78
2023/08/31 03:36:52;;;;;;;34.00;19.90;;;;;;;10.93;89.53;99614.28;10214444;28;20047;-78
2023/08/31 03:41:57;;;;;;;36.05;20.30;;;;;;;10.91;89.64;99622.50;10215761;28;20111;-80
2023/08/31 03:47:00;;;;;;;39.97;23.15;;;;;;;10.89;89.68;99623.63;10214818;28;20046;-79
2023/08/31 03:52:03;;;;;;;38.58;22.10;;;;;;;10.90;89.69;99628.88;10218425;28;20278;-78
2023/08/31 03:57:07;;;;;;;38.63;22.55;;;;;;;10.83;89.60;99631.28;10214255;28;20194;-79
2023/08/31 04:02:10;;;;;;;37.95;22.20;;;;;;;10.86;89.33;99627.47;10213631;28;20047;-78
2023/08/31 04:07:13;;;;;;;46.13;26.08;;;;;;;10.57;90.73;99625.66;10213634;28;20063;-78
2023/08/31 04:12:18;;;;;;;31.73;21.10;;;;;;;10.72;89.71;99649.38;10216564;28;20077;-79
2023/08/31 04:17:21;;;;;;;46.28;26.25;;;;;;;10.77;89.68;99647.97;10224510;28;20049;-78
2023/08/31 04:22:23;;;;;;;42.88;25.52;;;;;;;10.77;89.56;99653.34;10213831;28;20088;-78
2023/08/31 04:27:30;;;;;;;36.85;24.75;;;;;;;10.72;90.06;99646.69;10227642;28;20078;-79
2023/08/31 04:32:32;;;;;;;46.10;24.80;;;;;;;10.29;92.56;99661.44;10220442;28;20150;-78
2023/08/31 04:37:35;;;;;;;42.20;24.95;;;;;;;10.36;91.35;99659.84;10233190;28;20071;-78
2023/08/31 04:42:40;;;;;;;48.92;31.73;;;;;;;10.46;91.89;99666.09;10225268;28;20059;-79
2023/08/31 04:47:43;;;;;;;49.33;35.28;;;;;;;10.71;90.46;99670.03;10214013;28;20418;-78
2023/08/31 04:52:46;;;;;;;52.63;35.15;;;;;;;10.83;89.74;99668.91;10213961;28;20094;-79
2023/08/31 04:57:51;;;;;;;50.17;30.58;;;;;;;10.80;89.63;99669.16;10210543;28;20051;-79
2023/08/31 05:02:53;;;;;;;49.05;29.00;;;;;;;11.06;88.66;99666.72;10213105;28;20134;-78
2023/08/31 05:07:56;;;;;;;53.45;30.48;;;;;;;11.13;88.40;99674.25;10215622;28;20534;-79
2023/08/31 05:13:01;;;;;;;39.10;21.92;;;;;;;10.80;89.48;99681.75;10222400;28;20115;-79
2023/08/31 05:18:04;;;;;;;48.22;29.55;;;;;;;11.06;88.42;99682.84;10215171;28;20086;-79
2023/08/31 05:23:07;;;;;;;54.40;33.17;;;;;;;11.17;87.58;99678.34;10214128;28;20055;-79
2023/08/31 05:28:11;;;;;;;49.67;33.17;;;;;;;11.19;87.53;99687.97;10215248;28;20055;-78
2023/08/31 05:33:14;;;;;;;51.22;32.13;;;;;;;11.19;86.91;99697.84;10211451;28;20511;-78
2023/08/31 05:38:18;;;;;;;53.05;35.65;;;;;;;11.05;87.51;99709.88;10221552;28;20054;-79
2023/08/31 05:43:22;;;;;;;50.08;33.90;;;;;;;11.00;87.03;99709.47;10210208;28;20055;-79
2023/08/31 05:48:25;;;;;;;45.10;30.50;;;;;;;11.06;87.64;99714.28;10208674;28;20051;-78
2023/08/31 05:53:28;;;;;;;46.33;31.38;;;;;;;11.03;87.65;99711.88;10221763;28;20130;-79
2023/08/31 05:58:33;;;;;;;42.78;26.90;;;;;;;11.03;86.85;99714.56;10210715;28;20482;-79
2023/08/31 06:03:36;;;;;;;47.15;30.50;;;;;;;11.28;85.92;99718.50;10224861;28;20047;-79
2023/08/31 06:08:39;;;;;;;46.38;31.08;;;;;;;11.42;85.79;99711.81;10205626;28;20055;-79
2023/08/31 06:13:44;;;;;;;45.78;27.23;;;;;;;11.20;85.83;99724.59;10220834;28;20058;-80
2023/08/31 06:18:47;;;;;;;44.38;27.60;;;;;;;11.58;84.92;99721.97;10221842;28;20058;-79
2023/08/31 06:23:49;;;;;;;49.22;32.08;;;;;;;11.46;85.44;99713.19;10211468;28;20082;-78
2023/08/31 06:28:54;;;;;;;42.17;27.40;;;;;;;11.04;87.16;99711.72;10205994;28;20079;-79
2023/08/31 06:33:56;;;;;;;45.00;28.95;;;;;;;11.23;86.43;99718.09;10203589;28;20052;-79
2023/08/31 06:38:59;;;;;;;40.28;28.23;;;;;;;11.45;85.82;99725.81;10206430;28;20458;-80
2023/08/31 06:44:05;;;;;;;35.63;21.05;;;;;;;11.76;83.50;99730.09;10210178;28;20047;-79
2023/08/31 06:49:08;;;;;;;42.08;27.20;;;;;;;11.43;83.89;99727.78;10206941;28;20414;-78
2023/08/31 06:54:11;;;;;;;40.17;27.52;;;;;;;11.56;84.78;99734.69;10208474;28;20090;-78
2023/08/31 06:59:15;;;;;;;42.55;29.00;;;;;;;11.75;83.44;99748.06;10205758;28;21746;-79
2023/08/31 07:04:18;;;;;;;41.08;26.73;;;;;;;12.11;82.44;99745.50;10213214;28;20053;-78
2023/08/31 07:09:21;;;;;;;37.65;23.05;;;;;;;11.75;82.75;99752.63;10206753;28;20043;-81
2023/08/31 07:14:26;;;;;;;38.35;25.95;;;;;;;12.24;82.68;99750.56;10209102;28;20541;-77
2023/08/31 07:19:28;;;;;;;33.45;23.42;;;;;;;12.55;79.74;99759.16;10214198;28;20047;-78
2023/08/31 07:24:31;;;;;;;28.27;19.10;;;;;;;12.45;79.77;99767.31;10213889;28;20047;-80
2023/08/31 07:29:36;;;;;;;30.77;21.48;;;;;;;12.48;78.52;99756.25;10215524;28;20055;-80
2023/08/31 07:34:39;;;;;;;30.38;22.63;;;;;;;12.10;81.38;99766.22;10222005;28;20055;-80
2023/08/31 07:39:41;;;;;;;29.35;20.58;;;;;;;12.34;80.51;99768.38;10216365;28;20552;-80
2023/08/31 07:44:46;;;;;;;29.10;20.67;;;;;;;12.78;79.03;99770.31;10224599;28;20046;-80
2023/08/31 07:49:49;;;;;;;31.27;19.95;;;;;;;12.66;78.65;99767.03;10216934;28;20047;-79
2023/08/31 07:54:52;;;;;;;26.77;20.95;;;;;;;12.85;77.67;99774.13;10223316;28;20062;-80
2023/08/31 07:59:56;;;;;;;32.90;22.73;;;;;;;13.01;78.48;99773.44;10229494;28;21461;-79
2023/08/31 08:04:59;;;;;;;30.70;20.38;;;;;;;12.71;78.45;99780.03;10231832;28;20039;-79
2023/08/31 08:10:02;;;;;;;26.27;21.15;;;;;;;12.79;78.06;99777.44;10226918;28;20059;-80
2023/08/31 08:15:07;;;;;;;24.85;18.60;;;;;;;12.34;79.33;99807.91;10215060;28;20059;-78
2023/08/31 08:20:12;;;;;;;27.65;21.60;;;;;;;12.35;80.08;99802.38;10214077;28;20190;-78
2023/08/31 08:25:15;;;;;;;26.98;19.33;;;;;;;12.75;79.42;99797.59;10218808;28;20095;-78
2023/08/31 08:30:20;;;;;;;23.83;18.58;;;;;;;12.73;77.80;99819.31;10210775;28;20043;-77
2023/08/31 08:35:23;;;;;;;21.83;15.90;;;;;;;12.49;79.16;99817.19;10214654;28;20534;-78
2023/08/31 08:40:26;;;;;;;30.30;22.05;;;;;;;12.31;79.93;99811.78;10212914;28;20123;-77
2023/08/31 08:45:37;;;;;;;29.40;22.15;;;;;;;12.53;79.37;99806.94;10214763;28;20059;-78
2023/08/31 08:50:41;;;;;;;33.85;22.02;;;;;;;13.14;77.20;99806.25;10209144;28;20047;-78
2023/08/31 08:55:44;;;;;;;26.50;22.10;;;;;;;13.29;77.04;99795.72;10215808;28;20542;-80
2023/08/31 09:00:49;;;;;;;27.80;19.02;;;;;;;13.43;75.92;99808.69;10214019;28;20171;-79
2023/08/31 09:05:52;;;;;;;21.58;14.85;;;;;;;13.91;73.02;99803.78;10202049;28;20044;-77
2023/08/31 09:10:57;;;;;;;22.63;14.20;;;;;;;13.03;75.77;99804.63;10209530;28;20051;-79
2023/08/31 09:16:01;;;;;;;25.00;16.63;;;;;;;14.72;71.84;99791.63;10210651;28;20043;-80
2023/08/31 09:21:04;;;;;;;17.35;15.05;;;;;;;14.54;71.25;99797.19;10222065;28;20135;-80
2023/08/31 09:26:07;;;;;;;18.70;13.70;;;;;;;14.07;72.58;99768.78;10237374;28;21106;-82
2023/08/31 09:31:11;;;;;;;19.50;13.68;;;;;;;14.46;73.24;99798.00;10229316;28;20062;-81
2023/08/31 09:36:16;;;;;;;19.55;15.10;;;;;;;14.53;72.46;99801.72;10220521;28;20122;-81
2023/08/31 09:41:19;;;;;;;14.02;10.43;;;;;;;15.24;67.21;99800.31;10207918;28;20518;-80
2023/08/31 09:46:23;;;;;;;14.73;12.15;;;;;;;15.81;67.50;99791.31;10209077;28;21419;-79
2023/08/31 09:51:29;;;;;;;13.45;9.77;;;;;;;15.57;67.19;99794.91;10216317;28;20047;-79
2023/08/31 09:56:34;;;;;;;14.65;11.07;;;;;;;15.90;67.17;99797.56;10216732;28;20066;-80
2023/08/31 10:01:39;;;;;;;11.05;9.82;;;;;;;16.02;65.59;99798.91;10213903;28;20051;-81
2023/08/31 10:06:43;;;;;;;9.77;7.97;;;;;;;15.39;65.54;99787.00;10217179;28;20586;-81
2023/08/31 10:11:47;;;;;;;8.85;7.68;;;;;;;15.63;64.63;99794.25;10218026;28;20059;-81
2023/08/31 10:16:53;;;;;;;11.18;8.38;;;;;;;15.62;65.27;99819.59;10210399;28;20615;-79
2023/08/31 10:22:00;;;;;;;11.65;9.13;;;;;;;14.92;67.64;99820.09;10206533;28;20051;-79
2023/08/31 10:27:18;;;;;;;11.50;8.70;;;;;;;14.04;72.65;99843.84;10211196;28;20579;-80
2023/08/31 10:32:22;;;;;;;14.55;8.23;;;;;;;13.76;74.93;99835.06;10207479;28;20051;-80
2023/08/31 10:37:28;;;;;;;9.77;7.60;;;;;;;14.46;72.01;99833.13;10206282;28;20514;-79
2023/08/31 10:42:31;;;;;;;16.27;8.43;;;;;;;14.66;75.14;99828.28;10212490;28;20051;-81
2023/08/31 10:47:42;;;;;;;11.85;7.97;;;;;;;14.62;76.88;99823.34;10207448;28;20061;-80
2023/08/31 10:52:48;;;;;;;12.70;8.82;;;;;;;14.07;78.91;99816.50;10209047;28;20051;-80
2023/08/31 10:57:51;;;;;;;11.15;8.27;;;;;;;14.58;77.69;99823.69;10209493;28;20497;-81
2023/08/31 11:02:56;;;;;;;9.82;7.93;;;;;;;16.21;77.52;99810.31;10209806;28;20058;-80
2023/08/31 11:07:59;;;;;;;6.25;5.65;;;;;;;16.38;69.21;99797.63;10225362;28;20066;-80
2023/08/31 11:13:05;;;;;;;7.97;3.80;;;;;;;15.02;71.03;99809.09;10230984;28;20191;-80
2023/08/31 11:18:10;;;;;;;5.53;2.92;;;;;;;14.56;75.71;99806.81;10223088;28;20059;-80
2023/08/31 11:23:13;;;;;;;4.75;2.95;;;;;;;15.95;70.05;99805.16;10238224;28;20119;-79
2023/08/31 11:28:16;;;;;;;5.80;2.38;;;;;;;15.17;66.93;99798.47;10223805;28;20058;-78
2023/08/31 11:33:21;;;;;;;4.68;1.65;;;;;;;16.53;64.61;99802.09;10219493;28;20054;-78
2023/08/31 11:38:25;;;;;;;2.22;1.85;;;;;;;18.13;60.54;99807.63;10215323;28;20134;-78
2023/08/31 11:43:28;;;;;;;5.85;1.80;;;;;;;18.41;58.82;99796.06;10234026;28;20055;-80
2023/08/31 11:48:32;;;;;;;3.15;1.40;;;;;;;19.35;55.21;99812.41;10221229;28;20062;-78
2023/08/31 11:53:35;;;;;;;4.28;1.77;;;;;;;17.28;57.83;99816.03;10217240;28;20054;-79
2023/08/31 11:58:42;;;;;;;6.60;1.30;;;;;;;14.32;72.08;99845.34;10217315;28;20047;-80
2023/08/31 12:04:11;;;;;;;2.03;1.00;;;;;;;13.22;82.62;99837.84;10212964;28;20140;-79
2023/08/31 12:09:14;;;;;;;1.95;0.85;;;;;;;13.96;79.42;99839.25;10216131;28;20126;-81
2023/08/31 12:14:21;;;;;;;4.93;1.50;;;;;;;13.93;75.75;99843.13;10216177;28;20526;-79
2023/08/31 12:19:30;;;;;;;1.50;0.93;;;;;;;14.73;75.94;99850.13;10218604;28;20868;-79
2023/08/31 12:24:38;;;;;;;5.13;0.80;;;;;;;14.53;75.02;99865.72;10215005;28;20043;-79
2023/08/31 12:29:41;;;;;;;2.88;1.23;;;;;;;13.66;78.87;99868.41;10216160;28;20047;-80
2023/08/31 12:34:45;;;;;;;4.47;1.60;;;;;;;11.97;92.13;99864.44;10217573;28;20067;-80
2023/08/31 12:39:51;;;;;;;1.92;1.00;;;;;;;11.94;93.07;99854.81;10222689;28;20055;-77
2023/08/31 12:44:54;;;;;;;3.38;1.63;;;;;;;14.88;96.93;99853.84;10222655;28;21185;-78
2023/08/31 12:49:58;;;;;;;1.95;0.60;;;;;;;16.99;83.58;99850.16;10213017;28;20055;-80
2023/08/31 12:55:01;;;;;;;2.88;0.70;;;;;;;19.44;64.33;99841.19;10219259;28;20122;-80
2023/08/31 13:00:08;;;;;;;2.10;0.80;;;;;;;17.72;68.12;99854.22;10218323;28;20070;-78
2023/08/31 13:05:13;;;;;;;1.90;0.68;;;;;;;15.87;72.32;99863.75;10205569;28;20055;-79
2023/08/31 13:10:16;;;;;;;6.05;1.10;;;;;;;16.83;70.25;99848.38;10225326;28;20055;-79
2023/08/31 13:15:19;;;;;;;2.75;1.30;;;;;;;15.63;71.62;99855.66;10215471;28;20047;-78
2023/08/31 13:20:23;;;;;;;4.68;1.60;;;;;;;15.31;72.77;99853.78;10222461;28;20084;-80
2023/08/31 13:25:26;;;;;;;2.72;1.52;;;;;;;15.30;73.01;99846.66;10216051;28;20054;-82
2023/08/31 13:30:29;;;;;;;2.05;1.27;;;;;;;15.06;72.39;99848.34;10214551;28;20051;-79
2023/08/31 13:35:36;;;;;;;6.80;1.20;;;;;;;15.55;72.44;99847.53;10233956;28;20047;-79
2023/08/31 13:40:39;;;;;;;5.70;1.67;;;;;;;15.52;72.19;99856.00;10221066;28;20674;-79
2023/08/31 13:45:42;;;;;;;1.25;0.80;;;;;;;15.35;69.38;99863.25;10224011;28;20065;-79
2023/08/31 13:50:48;;;;;;;2.92;1.15;;;;;;;14.91;70.33;99877.03;10217708;28;20061;-80
2023/08/31 13:55:51;;;;;;;3.33;0.82;;;;;;;14.41;67.97;99881.38;10221005;28;20094;-79
2023/08/31 14:00:54;;;;;;;1.92;1.05;;;;;;;14.57;69.32;99891.44;10221393;28;20074;-78
2023/08/31 14:05:58;;;;;;;3.25;1.42;;;;;;;13.89;71.12;99884.94;10222750;28;20182;-79
2023/08/31 14:11:02;;;;;;;2.58;0.75;;;;;;;14.75;65.69;99883.22;10209883;28;21201;-78
2023/08/31 14:16:05;;;;;;;2.00;0.65;;;;;;;16.05;61.68;99900.66;10217171;28;20043;-79
2023/08/31 14:21:15;;;;;;;1.10;0.45;;;;;;;16.43;59.31;99911.75;10212425;28;20122;-77
2023/08/31 14:26:18;;;;;;;0.40;0.40;;;;;;;15.48;61.79;99906.91;10216054;28;20051;-77
2023/08/31 14:31:21;;;;;;;3.75;0.70;;;;;;;15.95;61.51;99894.56;10231715;28;20051;-78
2023/08/31 14:36:27;;;;;;;2.80;0.88;;;;;;;16.10;62.26;99890.97;10227533;28;20055;-77
2023/08/31 14:41:31;;;;;;;3.08;0.90;;;;;;;16.45;61.30;99897.00;10230363;28;20055;-79
2023/08/31 14:46:34;;;;;;;1.98;0.57;;;;;;;17.96;56.70;99904.72;10234478;28;20051;-79
2023/08/31 14:51:38;;;;;;;0.80;0.40;;;;;;;18.78;51.03;99901.19;10225254;28;20043;-80
2023/08/31 14:56:41;;;;;;;3.47;0.88;;;;;;;18.08;54.88;99900.59;10228574;28;21369;-79
2023/08/31 15:01:44;;;;;;;2.38;0.80;;;;;;;17.72;55.70;99910.38;10219621;28;20067;-80
2023/08/31 15:06:50;;;;;;;1.52;0.93;;;;;;;18.79;52.95;99909.16;10235889;28;20091;-78
2023/08/31 15:11:53;;;;;;;1.25;0.90;;;;;;;18.04;53.57;99912.00;10214043;28;20059;-78
2023/08/31 15:16:56;;;;;;;1.00;0.73;;;;;;;17.15;56.15;99917.06;10224597;28;20051;-80
2023/08/31 15:22:00;;;;;;;1.73;1.13;;;;;;;17.22;56.92;99926.16;10228201;28;20059;-79
2023/08/31 15:27:03;;;;;;;1.75;1.40;;;;;;;16.68;58.04;99915.25;10219304;28;20057;-79
2023/08/31 15:32:07;;;;;;;1.20;1.10;;;;;;;16.45;58.68;99924.09;10220157;28;20902;-79
2023/08/31 15:37:12;;;;;;;3.65;1.17;;;;;;;16.61;58.91;99923.22;10230383;28;20075;-80
2023/08/31 15:42:15;;;;;;;1.58;1.13;;;;;;;16.55;59.28;99934.78;10235548;28;20050;-76
2023/08/31 15:47:18;;;;;;;2.28;0.80;;;;;;;17.09;58.71;99931.34;10212700;28;20494;-77
2023/08/31 15:52:22;;;;;;;2.58;1.25;;;;;;;18.66;55.80;99929.88;10204195;28;20055;-77
2023/08/31 15:57:25;;;;;;;3.38;0.80;;;;;;;19.59;54.05;99937.31;10223752;28;20050;-77
2023/08/31 16:02:28;;;;;;;1.60;0.60;;;;;;;19.19;50.86;99946.91;10208607;28;20051;-76
2023/08/31 16:07:33;;;;;;;2.13;0.88;;;;;;;17.86;54.05;99944.91;10194941;28;20079;-78
2023/08/31 16:12:36;;;;;;;2.22;0.63;;;;;;;17.09;56.30;99950.31;10209504;28;20062;-76
2023/08/31 16:17:39;;;;;;;1.83;1.65;;;;;;;17.45;58.85;99937.06;10201007;28;20062;-77
2023/08/31 16:22:43;;;;;;;2.58;2.38;;;;;;;17.77;59.03;99933.28;10202548;28;20110;-79
2023/08/31 16:27:46;;;;;;;3.10;1.85;;;;;;;18.27;59.63;99945.41;10194719;28;20066;-76
2023/08/31 16:32:49;;;;;;;3.35;2.63;;;;;;;19.13;56.39;99943.06;10202341;28;20057;-79
2023/08/31 16:37:54;;;;;;;4.32;2.08;;;;;;;19.66;53.82;99957.31;10213006;28;20051;-79
2023/08/31 16:42:56;;;;;;;0.68;0.60;;;;;;;19.05;53.07;99945.06;10191856;28;20066;-79
2023/08/31 16:47:59;;;;;;;2.58;1.30;;;;;;;18.81;54.31;99949.75;10213606;28;20051;-81
2023/08/31 16:53:04;;;;;;;2.38;1.27;;;;;;;18.93;53.92;99945.56;10211703;28;20075;-78
2023/08/31 16:58:07;;;;;;;1.98;1.10;;;;;;;18.35;54.75;99958.09;10206240;28;20678;-79
2023/08/31 17:03:10;;;;;;;1.55;0.98;;;;;;;18.49;55.75;99954.53;10212270;28;20055;-77
2023/08/31 17:08:15;;;;;;;3.50;1.40;;;;;;;18.50;56.12;99949.94;11503591;23;20059;-75
2023/08/31 17:13:18;;;;;;;3.42;1.38;;;;;;;17.92;56.94;99955.88;10196156;29;20048;-75
2023/08/31 17:18:20;;;;;;;3.58;2.05;;;;;;;17.51;58.89;99959.94;10193197;29;20492;-75
2023/08/31 17:23:31;;;;;;;2.90;2.08;;;;;;;17.16;59.62;99959.47;10629570;27;20986;-74
2023/08/31 17:28:34;;;;;;;4.82;2.20;;;;;;;16.82;60.59;99955.19;10621978;27;20409;-75
2023/08/31 17:33:37;;;;;;;3.00;2.17;;;;;;;16.56;62.54;99958.13;10623553;27;20528;-75
2023/08/31 17:38:42;;;;;;;4.90;2.75;;;;;;;16.23;64.13;99969.00;10620852;27;20047;-75
2023/08/31 17:43:45;;;;;;;3.80;2.55;;;;;;;16.01;65.23;99967.84;10624176;27;20039;-74
2023/08/31 17:48:48;;;;;;;3.90;2.30;;;;;;;15.75;65.80;99970.72;10621451;27;20394;-74
2023/08/31 17:53:54;;;;;;;4.93;2.67;;;;;;;15.45;66.34;99972.22;10628037;27;20042;-76
2023/08/31 17:58:57;;;;;;;7.45;2.95;;;;;;;15.20;68.05;99974.81;10623985;27;20112;-74
2023/08/31 18:04:00;;;;;;;5.82;3.60;;;;;;;15.10;68.48;99982.22;10622988;27;20114;-76
2023/08/31 18:09:05;;;;;;;4.20;3.22;;;;;;;14.81;70.04;99986.16;10622212;27;20409;-76
2023/08/31 18:14:08;;;;;;;6.30;4.13;;;;;;;14.74;70.83;99995.91;10620926;27;20095;-75
2023/08/31 18:19:11;;;;;;;4.47;3.55;;;;;;;14.57;72.05;99999.53;10553517;27;20052;-75
2023/08/31 18:24:15;;;;;;;9.27;4.30;;;;;;;14.45;73.04;100009.75;10505746;27;20036;-75
2023/08/31 18:29:19;;;;;;;5.68;4.68;;;;;;;14.25;74.68;100022.59;10498782;27;20048;-75
2023/08/31 18:34:22;;;;;;;6.72;5.07;;;;;;;14.10;75.87;100029.56;10464606;28;20041;-77
2023/08/31 18:39:26;;;;;;;6.85;5.15;;;;;;;14.06;76.37;100025.47;10468417;28;20055;-81
2023/08/31 18:44:29;;;;;;;6.28;5.50;;;;;;;14.02;76.31;100026.81;10471415;28;20053;-75
2023/08/31 18:49:33;;;;;;;9.10;7.05;;;;;;;14.01;76.92;100035.88;10471581;28;20063;-76
2023/08/31 18:54:37;;;;;;;8.30;6.30;;;;;;;13.91;77.54;100039.53;10471298;28;20044;-75
2023/08/31 18:59:40;;;;;;;9.55;6.65;;;;;;;13.84;77.78;100040.28;10457836;28;20044;-76
2023/08/31 19:04:43;;;;;;;8.48;7.50;;;;;;;13.64;79.08;100042.28;10468892;28;20456;-75
2023/08/31 19:09:47;;;;;;;10.80;7.70;;;;;;;13.53;79.83;100050.59;10471722;28;20093;-76
2023/08/31 19:15:10;;;;;;;10.20;8.43;;;;;;;13.53;79.79;100051.44;10467065;28;20050;-76
2023/08/31 19:20:15;;;;;;;11.23;9.27;;;;;;;13.45;79.94;100059.44;10479569;28;20051;-77
2023/08/31 19:25:24;;;;;;;11.65;9.30;;;;;;;13.34;80.31;100055.06;10487641;28;20115;-76
2023/08/31 19:30:28;;;;;;;11.27;9.88;;;;;;;13.24;80.92;100056.97;10483024;28;20040;-78
2023/08/31 19:35:32;;;;;;;10.13;9.18;;;;;;;13.18;80.96;100063.81;10477515;28;20074;-78
2023/08/31 19:40:40;;;;;;;12.32;10.63;;;;;;;13.12;80.85;100066.25;10479065;28;20094;-78
2023/08/31 19:45:45;;;;;;;11.45;10.25;;;;;;;13.04;80.99;100062.44;10476894;28;20072;-77
2023/08/31 19:50:50;;;;;;;10.27;9.27;;;;;;;12.96;81.12;100070.41;10471115;28;20055;-78
2023/08/31 19:55:54;;;;;;;12.68;9.57;;;;;;;12.82;81.24;100063.66;10492355;28;20040;-76
2023/08/31 20:00:57;;;;;;;10.77;9.35;;;;;;;12.74;80.97;100068.94;10468507;28;20052;-77
2023/08/31 20:06:01;;;;;;;11.77;10.25;;;;;;;12.68;81.09;100068.69;10463754;28;20059;-77
2023/08/31 20:11:06;;;;;;;11.88;10.70;;;;;;;12.63;81.01;100069.09;10469314;28;20049;-77
2023/08/31 20:16:10;;;;;;;11.70;10.43;;;;;;;12.57;81.10;100067.84;10461863;28;20127;-76
2023/08/31 20:21:15;;;;;;;12.48;11.20;;;;;;;12.59;81.12;100078.50;10464789;28;20051;-77
2023/08/31 20:26:20;;;;;;;12.65;10.90;;;;;;;12.54;81.34;100086.16;10459195;28;20528;-77
2023/08/31 20:31:23;;;;;;;13.63;10.68;;;;;;;12.47;81.67;100079.63;10455688;28;20048;-77
2023/08/31 20:36:27;;;;;;;14.85;11.32;;;;;;;12.50;81.10;100085.56;10482009;28;20052;-77
2023/08/31 20:41:32;;;;;;;13.45;11.75;;;;;;;12.46;81.30;100083.31;10474490;28;20044;-76
2023/08/31 20:46:37;;;;;;;14.63;12.00;;;;;;;12.51;80.78;100081.06;10513231;28;20067;-77
2023/08/31 20:51:40;;;;;;;16.55;12.65;;;;;;;12.48;80.80;100092.97;10493738;28;20044;-77
2023/08/31 20:56:45;;;;;;;14.82;11.77;;;;;;;12.48;80.75;100092.09;10486985;28;20114;-77
2023/08/31 21:01:48;;;;;;;17.15;12.88;;;;;;;12.42;81.16;100090.81;10516317;28;20079;-75
2023/08/31 21:06:51;;;;;;;14.52;13.00;;;;;;;12.50;80.53;100095.50;10519387;28;20040;-77
2023/08/31 21:11:58;;;;;;;15.82;13.55;;;;;;;12.50;80.50;100107.13;10491461;28;20066;-75
2023/08/31 21:17:01;;;;;;;15.23;12.48;;;;;;;12.55;80.28;100106.69;10493048;28;20052;-76
2023/08/31 21:22:04;;;;;;;15.88;13.50;;;;;;;12.52;80.12;100110.53;10487177;28;20648;-77
2023/08/31 21:27:09;;;;;;;19.70;14.80;;;;;;;12.54;79.83;100094.25;10489303;28;20052;-77
2023/08/31 21:32:11;;;;;;;17.63;14.48;;;;;;;12.52;80.03;100099.75;10489727;28;20126;-77
2023/08/31 21:37:14;;;;;;;18.20;15.20;;;;;;;12.55;79.90;100101.31;10489497;28;20040;-76
2023/08/31 21:42:18;;;;;;;20.98;16.17;;;;;;;12.52;80.05;100101.59;10489262;28;20043;-76
2023/08/31 21:47:21;;;;;;;21.20;15.80;;;;;;;12.50;80.03;100099.03;10488943;28;20060;-77
2023/08/31 21:52:24;;;;;;;19.73;15.43;;;;;;;12.52;80.15;100102.44;10490999;28;20052;-77
2023/08/31 21:57:28;;;;;;;21.83;16.85;;;;;;;12.47;80.08;100118.19;10487010;28;20045;-76
2023/08/31 22:02:31;;;;;;;21.73;16.23;;;;;;;12.41;80.49;100118.78;10490017;28;20048;-75
2023/08/31 22:07:36;;;;;;;21.40;16.40;;;;;;;12.45;80.01;100119.31;10490403;28;20051;-76
2023/08/31 22:12:40;;;;;;;18.38;14.63;;;;;;;12.29;80.66;100109.16;10494509;28;20034;-76
2023/08/31 22:17:44;;;;;;;18.45;14.93;;;;;;;12.25;81.13;100113.06;10495074;28;20055;-75
2023/08/31 22:22:49;;;;;;;20.90;14.88;;;;;;;12.35;80.68;100122.03;10494744;28;20044;-77
2023/08/31 22:27:54;;;;;;;20.35;16.50;;;;;;;12.37;80.55;100122.75;10493202;28;20783;-76
2023/08/31 22:32:57;;;;;;;16.90;15.00;;;;;;;12.25;81.21;100118.44;10491425;28;20427;-75
2023/08/31 22:38:03;;;;;;;19.88;16.05;;;;;;;12.25;81.42;100113.06;10496855;28;20044;-76
2023/08/31 22:43:07;;;;;;;19.27;15.00;;;;;;;12.26;81.26;100112.06;10490780;28;20076;-76
2023/08/31 22:48:10;;;;;;;20.17;16.08;;;;;;;12.23;81.43;100109.66;10493990;28;20118;-74
2023/08/31 22:53:14;;;;;;;18.05;16.17;;;;;;;12.18;81.59;100115.50;10490105;28;20037;-77
2023/08/31 22:58:18;;;;;;;24.52;16.50;;;;;;;12.20;81.46;100109.94;10484600;28;20037;-75
2023/08/31 23:03:21;;;;;;;18.30;15.52;;;;;;;12.23;81.13;100115.03;10484660;28;20041;-76
2023/08/31 23:08:23;;;;;;;21.30;16.98;;;;;;;12.25;81.37;100118.44;10488037;28;20048;-76
2023/08/31 23:13:28;;;;;;;24.45;17.05;;;;;;;12.27;81.33;100116.47;10483279;28;20502;-75